sensor_id;sensor_type;location;lat;lon;timestamp;temperature;humidity
5802;DHT22;2927;49.366;8.530;2023-07-13T00:02:15;19.90;99.90
5802;DHT22;2927;49.366;8.530;2023-07-13T00:04:43;19.80;99.90
5802;DHT22;2927;49.366;8.530;2023-07-13T00:07:09;19.80;1.00
5802;DHT22;2927;49.366;8.530;2023-07-13T00:09:35;19.80;1.00
5802;DHT22;2927;49.366;8.530;2023-07-13T00:12:02;19.80;1.00
5802;DHT22;2927;49.366;8.530;2023-07-13T00:14:29;19.80;1.00
5802;DHT22;2927;49.366;8.530;2023-07-13T00:16:56;19.80;1.00
5802;DHT22;2927;49.366;8.530;2023-07-13T00:19:21;19.80;1.00
5802;DHT22;2927;49.366;8.530;2023-07-13T00:21:47;19.80;1.00
5802;DHT22;2927;49.366;8.530;2023-07-13T00:24:15;19.80;1.00
5802;DHT22;2927;49.366;8.530;2023-07-13T00:26:43;19.80;99.90
5802;DHT22;2927;49.366;8.530;2023-07-13T00:29:12;19.80;99.90
5802;DHT22;2927;49.366;8.530;2023-07-13T00:31:38;19.80;99.90
5802;DHT22;2927;49.366;8.530;2023-07-13T00:34:04;19.70;99.90
5802;DHT22;2927;49.366;8.530;2023-07-13T00:36:30;19.60;99.90
5802;DHT22;2927;49.366;8.530;2023-07-13T00:38:56;19.50;99.90
5802;DHT22;2927;49.366;8.530;2023-07-13T00:41:22;19.50;99.90
5802;DHT22;2927;49.366;8.530;2023-07-13T00:43:47;19.50;99.90
5802;DHT22;2927;49.366;8.530;2023-07-13T00:46:28;19.40;99.90
5802;DHT22;2927;49.366;8.530;2023-07-13T00:48:58;19.50;99.90
5802;DHT22;2927;49.366;8.530;2023-07-13T00:51:28;19.40;99.90
5802;DHT22;2927;49.366;8.530;2023-07-13T00:53:59;19.30;99.90
5802;DHT22;2927;49.366;8.530;2023-07-13T00:56:26;19.20;1.00
5802;DHT22;2927;49.366;8.530;2023-07-13T00:58:52;19.20;1.00
5802;DHT22;2927;49.366;8.530;2023-07-13T01:01:18;19.10;1.00
5802;DHT22;2927;49.366;8.530;2023-07-13T01:03:44;19.00;1.00
5802;DHT22;2927;49.366;8.530;2023-07-13T01:06:10;18.90;1.00
5802;DHT22;2927;49.366;8.530;2023-07-13T01:08:36;18.90;1.00
5802;DHT22;2927;49.366;8.530;2023-07-13T01:11:01;18.80;1.00
5802;DHT22;2927;49.366;8.530;2023-07-13T01:13:27;18.70;1.00
5802;DHT22;2927;49.366;8.530;2023-07-13T01:15:55;18.60;1.00
5802;DHT22;2927;49.366;8.530;2023-07-13T01:18:26;18.50;1.00
5802;DHT22;2927;49.366;8.530;2023-07-13T01:20:56;18.40;1.00
5802;DHT22;2927;49.366;8.530;2023-07-13T01:23:22;18.40;1.00
5802;DHT22;2927;49.366;8.530;2023-07-13T01:25:48;18.30;1.00
5802;DHT22;2927;49.366;8.530;2023-07-13T01:28:13;18.20;1.00
5802;DHT22;2927;49.366;8.530;2023-07-13T01:30:40;18.10;1.00
5802;DHT22;2927;49.366;8.530;2023-07-13T01:33:08;18.10;1.00
5802;DHT22;2927;49.366;8.530;2023-07-13T01:35:35;18.10;1.00
5802;DHT22;2927;49.366;8.530;2023-07-13T01:38:01;18.00;1.00
5802;DHT22;2927;49.366;8.530;2023-07-13T01:40:27;18.00;1.00
5802;DHT22;2927;49.366;8.530;2023-07-13T01:42:53;18.00;1.00
5802;DHT22;2927;49.366;8.530;2023-07-13T01:45:19;18.00;1.00
5802;DHT22;2927;49.366;8.530;2023-07-13T01:47:44;17.90;1.00
5802;DHT22;2927;49.366;8.530;2023-07-13T01:50:10;17.90;10.40
5802;DHT22;2927;49.366;8.530;2023-07-13T01:52:36;17.80;98.50
5802;DHT22;2927;49.366;8.530;2023-07-13T01:55:01;17.80;97.10
5802;DHT22;2927;49.366;8.530;2023-07-13T01:57:27;17.80;99.90
5802;DHT22;2927;49.366;8.530;2023-07-13T01:59:53;17.80;28.90
5802;DHT22;2927;49.366;8.530;2023-07-13T02:02:18;17.90;1.00
5802;DHT22;2927;49.366;8.530;2023-07-13T02:04:44;17.90;1.00
5802;DHT22;2927;49.366;8.530;2023-07-13T02:07:10;17.80;1.00
5802;DHT22;2927;49.366;8.530;2023-07-13T02:09:36;17.80;1.00
5802;DHT22;2927;49.366;8.530;2023-07-13T02:12:02;17.70;1.00
5802;DHT22;2927;49.366;8.530;2023-07-13T02:14:28;17.70;1.00
5802;DHT22;2927;49.366;8.530;2023-07-13T02:16:53;17.70;1.00
5802;DHT22;2927;49.366;8.530;2023-07-13T02:19:19;17.70;1.00
5802;DHT22;2927;49.366;8.530;2023-07-13T02:21:44;17.60;1.00
5802;DHT22;2927;49.366;8.530;2023-07-13T02:24:10;17.50;1.00
5802;DHT22;2927;49.366;8.530;2023-07-13T02:26:40;17.50;1.00
5802;DHT22;2927;49.366;8.530;2023-07-13T02:29:05;17.40;14.10
5802;DHT22;2927;49.366;8.530;2023-07-13T02:31:31;17.30;99.90
5802;DHT22;2927;49.366;8.530;2023-07-13T02:33:56;17.30;99.90
5802;DHT22;2927;49.366;8.530;2023-07-13T02:36:22;17.20;99.90
5802;DHT22;2927;49.366;8.530;2023-07-13T02:38:49;17.10;1.00
5802;DHT22;2927;49.366;8.530;2023-07-13T02:41:15;17.10;1.00
5802;DHT22;2927;49.366;8.530;2023-07-13T02:43:41;17.10;1.00
5802;DHT22;2927;49.366;8.530;2023-07-13T02:46:06;17.10;1.00
5802;DHT22;2927;49.366;8.530;2023-07-13T02:48:37;17.10;1.00
5802;DHT22;2927;49.366;8.530;2023-07-13T02:51:04;17.10;1.00
5802;DHT22;2927;49.366;8.530;2023-07-13T02:53:30;17.10;1.00
5802;DHT22;2927;49.366;8.530;2023-07-13T02:55:55;17.10;1.00
5802;DHT22;2927;49.366;8.530;2023-07-13T02:58:21;17.00;1.00
5802;DHT22;2927;49.366;8.530;2023-07-13T03:00:48;17.10;1.00
5802;DHT22;2927;49.366;8.530;2023-07-13T03:03:16;17.30;1.00
5802;DHT22;2927;49.366;8.530;2023-07-13T03:05:43;17.30;1.00
5802;DHT22;2927;49.366;8.530;2023-07-13T03:08:10;17.20;1.00
5802;DHT22;2927;49.366;8.530;2023-07-13T03:10:36;17.10;1.00
5802;DHT22;2927;49.366;8.530;2023-07-13T03:13:02;17.00;1.00
5802;DHT22;2927;49.366;8.530;2023-07-13T03:15:28;17.00;30.60
5802;DHT22;2927;49.366;8.530;2023-07-13T03:17:54;17.00;1.00
5802;DHT22;2927;49.366;8.530;2023-07-13T03:20:19;17.00;1.00
5802;DHT22;2927;49.366;8.530;2023-07-13T03:22:45;16.80;25.00
5802;DHT22;2927;49.366;8.530;2023-07-13T03:25:11;16.80;1.00
5802;DHT22;2927;49.366;8.530;2023-07-13T03:27:37;16.80;26.30
5802;DHT22;2927;49.366;8.530;2023-07-13T03:30:05;16.80;1.00
5802;DHT22;2927;49.366;8.530;2023-07-13T03:32:31;16.70;99.90
5802;DHT22;2927;49.366;8.530;2023-07-13T03:34:57;16.60;99.90
5802;DHT22;2927;49.366;8.530;2023-07-13T03:37:22;16.60;1.00
5802;DHT22;2927;49.366;8.530;2023-07-13T03:39:49;16.50;1.00
5802;DHT22;2927;49.366;8.530;2023-07-13T03:42:14;16.40;1.00
5802;DHT22;2927;49.366;8.530;2023-07-13T03:44:41;16.30;1.00
5802;DHT22;2927;49.366;8.530;2023-07-13T03:47:07;16.30;99.90
5802;DHT22;2927;49.366;8.530;2023-07-13T03:49:34;16.30;1.00
5802;DHT22;2927;49.366;8.530;2023-07-13T03:52:00;16.30;1.00
5802;DHT22;2927;49.366;8.530;2023-07-13T03:54:25;16.20;1.00
5802;DHT22;2927;49.366;8.530;2023-07-13T03:56:51;16.30;1.00
5802;DHT22;2927;49.366;8.530;2023-07-13T03:59:16;16.40;1.00
5802;DHT22;2927;49.366;8.530;2023-07-13T04:01:43;16.40;1.00
5802;DHT22;2927;49.366;8.530;2023-07-13T04:04:09;16.50;1.00
5802;DHT22;2927;49.366;8.530;2023-07-13T04:06:34;16.50;1.00
5802;DHT22;2927;49.366;8.530;2023-07-13T04:09:01;16.60;99.90
5802;DHT22;2927;49.366;8.530;2023-07-13T04:11:29;16.70;1.00
5802;DHT22;2927;49.366;8.530;2023-07-13T04:13:55;16.90;1.00
5802;DHT22;2927;49.366;8.530;2023-07-13T04:16:21;16.90;1.00
5802;DHT22;2927;49.366;8.530;2023-07-13T04:18:48;16.90;1.00
5802;DHT22;2927;49.366;8.530;2023-07-13T04:21:15;16.90;1.00
5802;DHT22;2927;49.366;8.530;2023-07-13T04:23:40;17.00;1.00
5802;DHT22;2927;49.366;8.530;2023-07-13T04:26:06;17.00;1.00
5802;DHT22;2927;49.366;8.530;2023-07-13T04:28:32;17.00;1.00
5802;DHT22;2927;49.366;8.530;2023-07-13T04:30:58;17.10;99.90
5802;DHT22;2927;49.366;8.530;2023-07-13T04:33:25;17.20;1.00
5802;DHT22;2927;49.366;8.530;2023-07-13T04:35:52;17.30;99.90
5802;DHT22;2927;49.366;8.530;2023-07-13T04:38:27;17.40;1.00
5802;DHT22;2927;49.366;8.530;2023-07-13T04:40:55;17.30;99.90
5802;DHT22;2927;49.366;8.530;2023-07-13T04:43:21;17.40;1.00
5802;DHT22;2927;49.366;8.530;2023-07-13T04:45:47;17.50;1.00
5802;DHT22;2927;49.366;8.530;2023-07-13T04:48:12;17.60;1.00
5802;DHT22;2927;49.366;8.530;2023-07-13T04:50:38;17.60;1.00
5802;DHT22;2927;49.366;8.530;2023-07-13T04:53:04;17.70;99.90
5802;DHT22;2927;49.366;8.530;2023-07-13T04:55:31;17.70;99.90
5802;DHT22;2927;49.366;8.530;2023-07-13T04:57:57;17.70;99.90
5802;DHT22;2927;49.366;8.530;2023-07-13T05:00:24;17.80;99.90
5802;DHT22;2927;49.366;8.530;2023-07-13T05:02:50;18.00;1.00
5802;DHT22;2927;49.366;8.530;2023-07-13T05:05:16;18.10;1.00
5802;DHT22;2927;49.366;8.530;2023-07-13T05:07:42;18.10;1.00
5802;DHT22;2927;49.366;8.530;2023-07-13T05:10:08;18.20;1.00
5802;DHT22;2927;49.366;8.530;2023-07-13T05:12:34;18.40;1.00
5802;DHT22;2927;49.366;8.530;2023-07-13T05:14:59;18.50;99.90
5802;DHT22;2927;49.366;8.530;2023-07-13T05:17:25;18.70;99.90
5802;DHT22;2927;49.366;8.530;2023-07-13T05:19:51;18.70;99.90
5802;DHT22;2927;49.366;8.530;2023-07-13T05:22:16;18.80;99.90
5802;DHT22;2927;49.366;8.530;2023-07-13T05:24:42;19.10;1.00
5802;DHT22;2927;49.366;8.530;2023-07-13T05:27:09;19.10;1.00
5802;DHT22;2927;49.366;8.530;2023-07-13T05:29:35;19.10;1.00
5802;DHT22;2927;49.366;8.530;2023-07-13T05:32:01;19.20;1.00
5802;DHT22;2927;49.366;8.530;2023-07-13T05:34:27;19.30;1.00
5802;DHT22;2927;49.366;8.530;2023-07-13T05:36:52;19.30;1.00
5802;DHT22;2927;49.366;8.530;2023-07-13T05:39:18;19.40;1.00
5802;DHT22;2927;49.366;8.530;2023-07-13T05:41:44;19.70;1.00
5802;DHT22;2927;49.366;8.530;2023-07-13T05:44:10;19.90;1.00
5802;DHT22;2927;49.366;8.530;2023-07-13T05:46:35;20.30;1.00
5802;DHT22;2927;49.366;8.530;2023-07-13T05:49:01;20.80;1.00
5802;DHT22;2927;49.366;8.530;2023-07-13T05:51:27;21.20;1.00
5802;DHT22;2927;49.366;8.530;2023-07-13T05:53:52;21.10;99.90
5802;DHT22;2927;49.366;8.530;2023-07-13T05:56:18;21.30;99.90
5802;DHT22;2927;49.366;8.530;2023-07-13T05:58:44;21.20;99.90
5802;DHT22;2927;49.366;8.530;2023-07-13T06:01:12;21.40;99.90
5802;DHT22;2927;49.366;8.530;2023-07-13T06:03:37;21.80;99.90
5802;DHT22;2927;49.366;8.530;2023-07-13T06:06:05;22.30;99.90
5802;DHT22;2927;49.366;8.530;2023-07-13T06:08:31;22.50;99.90
5802;DHT22;2927;49.366;8.530;2023-07-13T06:11:27;22.40;99.90
5802;DHT22;2927;49.366;8.530;2023-07-13T06:13:53;23.40;99.90
5802;DHT22;2927;49.366;8.530;2023-07-13T06:16:19;24.50;98.40
5802;DHT22;2927;49.366;8.530;2023-07-13T06:18:45;24.60;41.10
5802;DHT22;2927;49.366;8.530;2023-07-13T06:21:17;25.30;19.00
5802;DHT22;2927;49.366;8.530;2023-07-13T06:23:47;26.80;1.00
5802;DHT22;2927;49.366;8.530;2023-07-13T06:26:16;27.80;1.00
5802;DHT22;2927;49.366;8.530;2023-07-13T06:28:41;28.30;1.00
5802;DHT22;2927;49.366;8.530;2023-07-13T06:31:08;29.40;1.00
5802;DHT22;2927;49.366;8.530;2023-07-13T06:33:35;30.20;1.00
5802;DHT22;2927;49.366;8.530;2023-07-13T06:36:05;30.90;1.00
5802;DHT22;2927;49.366;8.530;2023-07-13T06:38:31;31.00;1.00
5802;DHT22;2927;49.366;8.530;2023-07-13T06:40:56;31.00;1.00
5802;DHT22;2927;49.366;8.530;2023-07-13T06:43:22;31.50;1.00
5802;DHT22;2927;49.366;8.530;2023-07-13T06:45:50;31.50;1.00
5802;DHT22;2927;49.366;8.530;2023-07-13T06:48:17;31.90;1.00
5802;DHT22;2927;49.366;8.530;2023-07-13T06:50:43;30.60;1.00
5802;DHT22;2927;49.366;8.530;2023-07-13T06:53:10;31.40;1.00
5802;DHT22;2927;49.366;8.530;2023-07-13T06:55:37;31.30;1.00
5802;DHT22;2927;49.366;8.530;2023-07-13T06:58:03;32.00;1.00
5802;DHT22;2927;49.366;8.530;2023-07-13T07:00:29;33.10;1.00
5802;DHT22;2927;49.366;8.530;2023-07-13T07:02:54;32.80;1.00
5802;DHT22;2927;49.366;8.530;2023-07-13T07:05:20;32.70;1.00
5802;DHT22;2927;49.366;8.530;2023-07-13T07:07:48;33.50;1.00
5802;DHT22;2927;49.366;8.530;2023-07-13T07:10:15;33.40;1.00
5802;DHT22;2927;49.366;8.530;2023-07-13T07:12:40;33.90;1.00
5802;DHT22;2927;49.366;8.530;2023-07-13T07:15:06;32.90;1.00
5802;DHT22;2927;49.366;8.530;2023-07-13T07:17:33;33.00;1.00
5802;DHT22;2927;49.366;8.530;2023-07-13T07:19:59;33.60;1.00
5802;DHT22;2927;49.366;8.530;2023-07-13T07:22:24;34.50;1.00
5802;DHT22;2927;49.366;8.530;2023-07-13T07:24:53;34.70;1.00
5802;DHT22;2927;49.366;8.530;2023-07-13T07:27:18;34.60;1.00
5802;DHT22;2927;49.366;8.530;2023-07-13T07:29:44;34.90;1.00
5802;DHT22;2927;49.366;8.530;2023-07-13T07:32:10;35.20;1.00
5802;DHT22;2927;49.366;8.530;2023-07-13T07:34:35;34.70;1.00
5802;DHT22;2927;49.366;8.530;2023-07-13T07:37:02;34.80;1.00
5802;DHT22;2927;49.366;8.530;2023-07-13T07:39:29;34.60;1.00
5802;DHT22;2927;49.366;8.530;2023-07-13T07:41:54;34.80;1.00
5802;DHT22;2927;49.366;8.530;2023-07-13T07:44:20;35.00;1.00
5802;DHT22;2927;49.366;8.530;2023-07-13T07:46:46;35.60;1.00
5802;DHT22;2927;49.366;8.530;2023-07-13T07:49:12;35.80;1.00
5802;DHT22;2927;49.366;8.530;2023-07-13T07:51:37;35.50;1.00
5802;DHT22;2927;49.366;8.530;2023-07-13T07:54:04;35.40;1.00
5802;DHT22;2927;49.366;8.530;2023-07-13T07:56:30;35.70;1.00
5802;DHT22;2927;49.366;8.530;2023-07-13T07:58:56;36.20;1.00
5802;DHT22;2927;49.366;8.530;2023-07-13T08:01:22;36.70;1.00
5802;DHT22;2927;49.366;8.530;2023-07-13T08:03:47;36.40;1.00
5802;DHT22;2927;49.366;8.530;2023-07-13T08:06:13;36.50;1.00
5802;DHT22;2927;49.366;8.530;2023-07-13T08:08:39;36.60;1.00
5802;DHT22;2927;49.366;8.530;2023-07-13T08:11:08;36.20;1.00
5802;DHT22;2927;49.366;8.530;2023-07-13T08:13:34;35.90;1.00
5802;DHT22;2927;49.366;8.530;2023-07-13T08:16:00;35.80;1.00
5802;DHT22;2927;49.366;8.530;2023-07-13T08:18:26;35.40;1.00
5802;DHT22;2927;49.366;8.530;2023-07-13T08:20:53;35.30;1.00
5802;DHT22;2927;49.366;8.530;2023-07-13T08:23:21;35.50;1.00
5802;DHT22;2927;49.366;8.530;2023-07-13T08:25:51;35.90;1.00
5802;DHT22;2927;49.366;8.530;2023-07-13T08:28:17;35.90;1.00
5802;DHT22;2927;49.366;8.530;2023-07-13T08:30:42;36.20;1.00
5802;DHT22;2927;49.366;8.530;2023-07-13T08:33:08;36.00;1.00
5802;DHT22;2927;49.366;8.530;2023-07-13T08:35:33;36.00;1.00
5802;DHT22;2927;49.366;8.530;2023-07-13T08:37:59;35.90;1.00
5802;DHT22;2927;49.366;8.530;2023-07-13T08:40:27;36.50;1.00
5802;DHT22;2927;49.366;8.530;2023-07-13T08:42:58;35.20;1.00
5802;DHT22;2927;49.366;8.530;2023-07-13T08:45:48;35.10;1.00
5802;DHT22;2927;49.366;8.530;2023-07-13T08:48:33;34.50;1.00
5802;DHT22;2927;49.366;8.530;2023-07-13T08:54:30;35.30;1.00
5802;DHT22;2927;49.366;8.530;2023-07-13T08:56:59;35.60;1.00
5802;DHT22;2927;49.366;8.530;2023-07-13T08:59:28;35.60;1.00
5802;DHT22;2927;49.366;8.530;2023-07-13T09:13:07;35.40;1.00
5802;DHT22;2927;49.366;8.530;2023-07-13T09:15:39;34.40;1.00
5802;DHT22;2927;49.366;8.530;2023-07-13T09:18:28;34.00;1.00
5802;DHT22;2927;49.366;8.530;2023-07-13T09:21:16;34.00;1.00
5802;DHT22;2927;49.366;8.530;2023-07-13T09:23:42;35.70;1.00
5802;DHT22;2927;49.366;8.530;2023-07-13T09:26:21;34.80;1.00
5802;DHT22;2927;49.366;8.530;2023-07-13T09:29:14;34.50;1.00
5802;DHT22;2927;49.366;8.530;2023-07-13T09:31:53;33.00;1.00
5802;DHT22;2927;49.366;8.530;2023-07-13T09:34:19;33.10;1.00
5802;DHT22;2927;49.366;8.530;2023-07-13T09:36:45;32.50;1.00
5802;DHT22;2927;49.366;8.530;2023-07-13T09:39:18;32.30;1.00
5802;DHT22;2927;49.366;8.530;2023-07-13T09:44:13;32.50;1.00
5802;DHT22;2927;49.366;8.530;2023-07-13T09:46:47;32.80;1.00
5802;DHT22;2927;49.366;8.530;2023-07-13T09:49:17;32.90;1.00
5802;DHT22;2927;49.366;8.530;2023-07-13T09:51:43;32.40;1.00
5802;DHT22;2927;49.366;8.530;2023-07-13T09:54:24;31.80;1.00
5802;DHT22;2927;49.366;8.530;2023-07-13T09:57:00;31.00;1.00
5802;DHT22;2927;49.366;8.530;2023-07-13T09:59:34;30.50;1.00
5802;DHT22;2927;49.366;8.530;2023-07-13T10:01:59;30.10;1.00
5802;DHT22;2927;49.366;8.530;2023-07-13T10:04:32;29.70;1.00
5802;DHT22;2927;49.366;8.530;2023-07-13T10:07:11;29.80;1.00
5802;DHT22;2927;49.366;8.530;2023-07-13T10:09:38;29.40;1.00
5802;DHT22;2927;49.366;8.530;2023-07-13T10:12:13;29.40;1.00
5802;DHT22;2927;49.366;8.530;2023-07-13T10:14:40;29.40;1.00
5802;DHT22;2927;49.366;8.530;2023-07-13T10:17:12;29.20;1.00
5802;DHT22;2927;49.366;8.530;2023-07-13T10:19:38;30.00;1.00
5802;DHT22;2927;49.366;8.530;2023-07-13T10:22:17;31.10;1.00
5802;DHT22;2927;49.366;8.530;2023-07-13T10:24:46;31.60;1.00
5802;DHT22;2927;49.366;8.530;2023-07-13T10:27:20;31.40;1.00
5802;DHT22;2927;49.366;8.530;2023-07-13T10:30:13;31.10;1.00
5802;DHT22;2927;49.366;8.530;2023-07-13T10:32:40;31.00;1.00
5802;DHT22;2927;49.366;8.530;2023-07-13T10:35:10;30.40;1.00
5802;DHT22;2927;49.366;8.530;2023-07-13T10:38:07;30.30;1.00
5802;DHT22;2927;49.366;8.530;2023-07-13T10:40:45;30.40;1.00
5802;DHT22;2927;49.366;8.530;2023-07-13T10:43:19;30.10;1.00
5802;DHT22;2927;49.366;8.530;2023-07-13T10:45:47;29.90;1.00
5802;DHT22;2927;49.366;8.530;2023-07-13T10:48:15;29.60;1.00
5802;DHT22;2927;49.366;8.530;2023-07-13T10:50:44;29.40;1.00
5802;DHT22;2927;49.366;8.530;2023-07-13T10:53:40;29.30;1.00
5802;DHT22;2927;49.366;8.530;2023-07-13T10:56:28;29.40;1.00
5802;DHT22;2927;49.366;8.530;2023-07-13T10:59:19;29.40;1.00
5802;DHT22;2927;49.366;8.530;2023-07-13T11:04:42;29.40;1.00
5802;DHT22;2927;49.366;8.530;2023-07-13T11:07:31;29.10;1.00
5802;DHT22;2927;49.366;8.530;2023-07-13T11:10:04;29.10;1.00
5802;DHT22;2927;49.366;8.530;2023-07-13T11:12:52;28.70;1.00
5802;DHT22;2927;49.366;8.530;2023-07-13T11:15:42;28.40;1.00
5802;DHT22;2927;49.366;8.530;2023-07-13T11:18:21;28.60;1.00
5802;DHT22;2927;49.366;8.530;2023-07-13T11:20:48;28.50;1.00
5802;DHT22;2927;49.366;8.530;2023-07-13T11:25:41;28.60;1.00
5802;DHT22;2927;49.366;8.530;2023-07-13T11:30:41;28.80;1.00
5802;DHT22;2927;49.366;8.530;2023-07-13T11:33:18;29.00;1.00
5802;DHT22;2927;49.366;8.530;2023-07-13T11:38:28;29.40;1.00
5802;DHT22;2927;49.366;8.530;2023-07-13T11:40:56;29.20;1.00
5802;DHT22;2927;49.366;8.530;2023-07-13T11:43:24;29.20;1.00
5802;DHT22;2927;49.366;8.530;2023-07-13T11:45:50;29.30;1.00
5802;DHT22;2927;49.366;8.530;2023-07-13T11:48:19;29.30;1.00
5802;DHT22;2927;49.366;8.530;2023-07-13T11:51:02;29.30;1.00
5802;DHT22;2927;49.366;8.530;2023-07-13T11:53:35;29.20;1.00
5802;DHT22;2927;49.366;8.530;2023-07-13T11:56:02;29.00;1.00
5802;DHT22;2927;49.366;8.530;2023-07-13T11:58:28;28.90;1.00
5802;DHT22;2927;49.366;8.530;2023-07-13T12:00:58;29.20;1.00
5802;DHT22;2927;49.366;8.530;2023-07-13T12:03:25;29.40;1.00
5802;DHT22;2927;49.366;8.530;2023-07-13T12:06:04;29.70;1.00
5802;DHT22;2927;49.366;8.530;2023-07-13T12:08:38;29.80;1.00
5802;DHT22;2927;49.366;8.530;2023-07-13T12:11:16;29.60;1.00
5802;DHT22;2927;49.366;8.530;2023-07-13T12:13:44;29.60;1.00
5802;DHT22;2927;49.366;8.530;2023-07-13T12:16:16;29.80;1.00
5802;DHT22;2927;49.366;8.530;2023-07-13T12:18:44;29.80;1.00
5802;DHT22;2927;49.366;8.530;2023-07-13T12:21:14;29.70;1.00
5802;DHT22;2927;49.366;8.530;2023-07-13T12:23:43;29.70;1.00
5802;DHT22;2927;49.366;8.530;2023-07-13T12:26:10;29.50;1.00
5802;DHT22;2927;49.366;8.530;2023-07-13T12:28:42;29.20;1.00
5802;DHT22;2927;49.366;8.530;2023-07-13T12:34:15;28.90;1.00
5802;DHT22;2927;49.366;8.530;2023-07-13T12:39:18;29.00;1.00
5802;DHT22;2927;49.366;8.530;2023-07-13T12:41:46;29.10;1.00
5802;DHT22;2927;49.366;8.530;2023-07-13T12:44:16;29.50;1.00
5802;DHT22;2927;49.366;8.530;2023-07-13T12:47:03;29.70;1.00
5802;DHT22;2927;49.366;8.530;2023-07-13T12:49:32;29.80;1.00
5802;DHT22;2927;49.366;8.530;2023-07-13T12:52:03;29.70;1.00
5802;DHT22;2927;49.366;8.530;2023-07-13T12:54:30;29.30;1.00
5802;DHT22;2927;49.366;8.530;2023-07-13T12:56:59;29.10;1.00
5802;DHT22;2927;49.366;8.530;2023-07-13T12:59:29;28.90;1.00
5802;DHT22;2927;49.366;8.530;2023-07-13T13:01:56;28.60;1.00
5802;DHT22;2927;49.366;8.530;2023-07-13T13:04:21;28.70;1.00
5802;DHT22;2927;49.366;8.530;2023-07-13T13:06:48;28.80;1.00
5802;DHT22;2927;49.366;8.530;2023-07-13T13:09:16;28.70;1.00
5802;DHT22;2927;49.366;8.530;2023-07-13T13:11:42;28.80;1.00
5802;DHT22;2927;49.366;8.530;2023-07-13T13:14:08;28.80;1.00
5802;DHT22;2927;49.366;8.530;2023-07-13T13:16:48;28.90;1.00
5802;DHT22;2927;49.366;8.530;2023-07-13T13:19:19;29.20;1.00
5802;DHT22;2927;49.366;8.530;2023-07-13T13:21:47;29.40;1.00
5802;DHT22;2927;49.366;8.530;2023-07-13T13:24:19;29.50;1.00
5802;DHT22;2927;49.366;8.530;2023-07-13T13:26:46;29.50;1.00
5802;DHT22;2927;49.366;8.530;2023-07-13T13:29:15;29.50;1.00
5802;DHT22;2927;49.366;8.530;2023-07-13T13:31:42;29.60;1.00
5802;DHT22;2927;49.366;8.530;2023-07-13T13:34:12;29.60;1.00
5802;DHT22;2927;49.366;8.530;2023-07-13T13:36:40;29.50;1.00
5802;DHT22;2927;49.366;8.530;2023-07-13T13:39:37;29.20;1.00
5802;DHT22;2927;49.366;8.530;2023-07-13T13:42:03;29.10;1.00
5802;DHT22;2927;49.366;8.530;2023-07-13T13:44:29;29.10;1.00
5802;DHT22;2927;49.366;8.530;2023-07-13T13:46:56;29.20;1.00
5802;DHT22;2927;49.366;8.530;2023-07-13T13:49:25;29.30;1.00
5802;DHT22;2927;49.366;8.530;2023-07-13T13:51:51;29.30;1.00
5802;DHT22;2927;49.366;8.530;2023-07-13T13:54:19;29.10;1.00
5802;DHT22;2927;49.366;8.530;2023-07-13T13:56:47;29.00;1.00
5802;DHT22;2927;49.366;8.530;2023-07-13T13:59:13;29.20;1.00
5802;DHT22;2927;49.366;8.530;2023-07-13T14:01:39;29.10;1.00
5802;DHT22;2927;49.366;8.530;2023-07-13T14:04:06;29.20;1.00
5802;DHT22;2927;49.366;8.530;2023-07-13T14:06:32;29.20;1.00
5802;DHT22;2927;49.366;8.530;2023-07-13T14:09:00;29.10;1.00
5802;DHT22;2927;49.366;8.530;2023-07-13T14:11:25;28.90;1.00
5802;DHT22;2927;49.366;8.530;2023-07-13T14:13:55;29.30;1.00
5802;DHT22;2927;49.366;8.530;2023-07-13T14:16:22;29.40;1.00
5802;DHT22;2927;49.366;8.530;2023-07-13T14:18:53;29.40;1.00
5802;DHT22;2927;49.366;8.530;2023-07-13T14:21:20;29.40;1.00
5802;DHT22;2927;49.366;8.530;2023-07-13T14:23:47;28.90;1.00
5802;DHT22;2927;49.366;8.530;2023-07-13T14:26:19;28.70;1.00
5802;DHT22;2927;49.366;8.530;2023-07-13T14:28:47;28.30;1.00
5802;DHT22;2927;49.366;8.530;2023-07-13T14:31:15;28.10;1.00
5802;DHT22;2927;49.366;8.530;2023-07-13T14:33:40;28.10;1.00
5802;DHT22;2927;49.366;8.530;2023-07-13T14:36:34;28.10;1.00
5802;DHT22;2927;49.366;8.530;2023-07-13T14:39:10;28.00;1.00
5802;DHT22;2927;49.366;8.530;2023-07-13T14:41:36;28.00;1.00
5802;DHT22;2927;49.366;8.530;2023-07-13T14:44:14;27.90;1.00
5802;DHT22;2927;49.366;8.530;2023-07-13T14:46:41;28.00;1.00
5802;DHT22;2927;49.366;8.530;2023-07-13T14:49:21;28.30;1.00
5802;DHT22;2927;49.366;8.530;2023-07-13T14:51:49;28.50;1.00
5802;DHT22;2927;49.366;8.530;2023-07-13T14:54:14;28.50;1.00
5802;DHT22;2927;49.366;8.530;2023-07-13T14:56:40;28.40;1.00
5802;DHT22;2927;49.366;8.530;2023-07-13T14:59:06;28.10;1.00
5802;DHT22;2927;49.366;8.530;2023-07-13T15:01:36;28.00;1.00
5802;DHT22;2927;49.366;8.530;2023-07-13T15:04:02;27.90;1.00
5802;DHT22;2927;49.366;8.530;2023-07-13T15:06:29;28.10;1.00
5802;DHT22;2927;49.366;8.530;2023-07-13T15:08:57;28.50;1.00
5802;DHT22;2927;49.366;8.530;2023-07-13T15:11:22;28.70;1.00
5802;DHT22;2927;49.366;8.530;2023-07-13T15:13:48;28.70;1.00
5802;DHT22;2927;49.366;8.530;2023-07-13T15:16:18;28.70;1.00
5802;DHT22;2927;49.366;8.530;2023-07-13T15:18:46;28.70;1.00
5802;DHT22;2927;49.366;8.530;2023-07-13T15:21:22;28.50;1.00
5802;DHT22;2927;49.366;8.530;2023-07-13T15:23:50;28.50;1.00
5802;DHT22;2927;49.366;8.530;2023-07-13T15:26:18;28.20;1.00
5802;DHT22;2927;49.366;8.530;2023-07-13T15:28:47;28.00;1.00
5802;DHT22;2927;49.366;8.530;2023-07-13T15:31:32;28.10;1.00
5802;DHT22;2927;49.366;8.530;2023-07-13T15:33:59;28.00;1.00
5802;DHT22;2927;49.366;8.530;2023-07-13T15:36:26;27.80;1.00
5802;DHT22;2927;49.366;8.530;2023-07-13T15:38:54;27.80;1.00
5802;DHT22;2927;49.366;8.530;2023-07-13T15:41:27;27.70;1.00
5802;DHT22;2927;49.366;8.530;2023-07-13T15:43:58;27.40;1.00
5802;DHT22;2927;49.366;8.530;2023-07-13T15:46:27;27.50;1.00
5802;DHT22;2927;49.366;8.530;2023-07-13T15:48:54;27.70;1.00
5802;DHT22;2927;49.366;8.530;2023-07-13T15:51:30;28.00;1.00
5802;DHT22;2927;49.366;8.530;2023-07-13T15:54:01;28.00;1.00
5802;DHT22;2927;49.366;8.530;2023-07-13T15:56:36;27.80;1.00
5802;DHT22;2927;49.366;8.530;2023-07-13T15:59:02;27.70;1.00
5802;DHT22;2927;49.366;8.530;2023-07-13T16:01:29;27.60;1.00
5802;DHT22;2927;49.366;8.530;2023-07-13T16:03:57;27.40;1.00
5802;DHT22;2927;49.366;8.530;2023-07-13T16:06:29;27.40;1.00
5802;DHT22;2927;49.366;8.530;2023-07-13T16:08:56;27.50;1.00
5802;DHT22;2927;49.366;8.530;2023-07-13T16:11:24;27.50;1.00
5802;DHT22;2927;49.366;8.530;2023-07-13T16:13:51;27.50;1.00
5802;DHT22;2927;49.366;8.530;2023-07-13T16:16:21;27.50;1.00
5802;DHT22;2927;49.366;8.530;2023-07-13T16:18:53;27.60;1.00
5802;DHT22;2927;49.366;8.530;2023-07-13T16:21:32;27.90;1.00
5802;DHT22;2927;49.366;8.530;2023-07-13T16:24:01;27.90;1.00
5802;DHT22;2927;49.366;8.530;2023-07-13T16:26:36;28.00;1.00
5802;DHT22;2927;49.366;8.530;2023-07-13T16:29:25;27.90;1.00
5802;DHT22;2927;49.366;8.530;2023-07-13T16:31:56;27.80;1.00
5802;DHT22;2927;49.366;8.530;2023-07-13T16:34:22;27.70;1.00
5802;DHT22;2927;49.366;8.530;2023-07-13T16:36:49;27.60;1.00
5802;DHT22;2927;49.366;8.530;2023-07-13T16:39:15;27.60;1.00
5802;DHT22;2927;49.366;8.530;2023-07-13T16:41:41;27.60;1.00
5802;DHT22;2927;49.366;8.530;2023-07-13T16:44:16;27.80;1.00
5802;DHT22;2927;49.366;8.530;2023-07-13T16:46:44;27.70;1.00
5802;DHT22;2927;49.366;8.530;2023-07-13T16:49:24;27.80;1.00
5802;DHT22;2927;49.366;8.530;2023-07-13T16:51:51;27.80;1.00
5802;DHT22;2927;49.366;8.530;2023-07-13T16:54:17;27.60;1.00
5802;DHT22;2927;49.366;8.530;2023-07-13T16:56:48;27.50;1.00
5802;DHT22;2927;49.366;8.530;2023-07-13T16:59:17;27.60;1.00